sensor_id;sensor_type;location;lat;lon;timestamp;temperature;humidity
33827;DHT22;20128;45.582;5.298;2023-06-10T00:00:13;21.50;89.30
33827;DHT22;20128;45.582;5.298;2023-06-10T00:02:40;21.30;89.40
33827;DHT22;20128;45.582;5.298;2023-06-10T00:05:07;21.30;89.30
33827;DHT22;20128;45.582;5.298;2023-06-10T00:07:36;21.20;89.50
33827;DHT22;20128;45.582;5.298;2023-06-10T00:10:06;21.10;89.80
33827;DHT22;20128;45.582;5.298;2023-06-10T00:12:33;21.10;90.00
33827;DHT22;20128;45.582;5.298;2023-06-10T00:15:05;21.20;90.20
33827;DHT22;20128;45.582;5.298;2023-06-10T00:17:31;21.20;90.10
33827;DHT22;20128;45.582;5.298;2023-06-10T00:19:56;21.30;90.10
33827;DHT22;20128;45.582;5.298;2023-06-10T00:22:23;21.30;90.10
33827;DHT22;20128;45.582;5.298;2023-06-10T00:24:49;21.40;90.10
33827;DHT22;20128;45.582;5.298;2023-06-10T00:27:16;21.40;90.10
33827;DHT22;20128;45.582;5.298;2023-06-10T00:29:42;21.40;90.30
33827;DHT22;20128;45.582;5.298;2023-06-10T00:32:07;21.50;89.80
33827;DHT22;20128;45.582;5.298;2023-06-10T00:34:33;21.40;89.40
33827;DHT22;20128;45.582;5.298;2023-06-10T00:36:59;21.40;89.80
33827;DHT22;20128;45.582;5.298;2023-06-10T00:39:25;21.40;89.90
33827;DHT22;20128;45.582;5.298;2023-06-10T00:41:50;21.30;90.00
33827;DHT22;20128;45.582;5.298;2023-06-10T00:44:16;21.30;90.00
33827;DHT22;20128;45.582;5.298;2023-06-10T00:46:42;21.30;90.00
33827;DHT22;20128;45.582;5.298;2023-06-10T00:49:08;21.20;89.70
33827;DHT22;20128;45.582;5.298;2023-06-10T00:51:34;21.20;89.60
33827;DHT22;20128;45.582;5.298;2023-06-10T00:54:00;21.30;89.80
33827;DHT22;20128;45.582;5.298;2023-06-10T00:56:27;21.30;90.00
33827;DHT22;20128;45.582;5.298;2023-06-10T00:58:53;21.30;89.90
33827;DHT22;20128;45.582;5.298;2023-06-10T01:01:19;21.10;90.00
33827;DHT22;20128;45.582;5.298;2023-06-10T01:03:45;21.10;90.10
33827;DHT22;20128;45.582;5.298;2023-06-10T01:13:01;21.10;89.90
33827;DHT22;20128;45.582;5.298;2023-06-10T01:15:34;21.10;89.60
33827;DHT22;20128;45.582;5.298;2023-06-10T01:18:02;21.00;89.50
33827;DHT22;20128;45.582;5.298;2023-06-10T01:20:29;20.90;89.90
33827;DHT22;20128;45.582;5.298;2023-06-10T01:22:58;20.90;90.00
33827;DHT22;20128;45.582;5.298;2023-06-10T01:25:25;21.00;89.80
33827;DHT22;20128;45.582;5.298;2023-06-10T01:28:27;21.00;89.60
33827;DHT22;20128;45.582;5.298;2023-06-10T01:31:30;21.10;89.70
33827;DHT22;20128;45.582;5.298;2023-06-10T01:34:00;21.10;89.60
33827;DHT22;20128;45.582;5.298;2023-06-10T01:36:28;21.10;89.50
33827;DHT22;20128;45.582;5.298;2023-06-10T01:38:55;21.10;89.40
33827;DHT22;20128;45.582;5.298;2023-06-10T01:41:21;21.00;89.30
33827;DHT22;20128;45.582;5.298;2023-06-10T01:43:48;20.90;89.40
33827;DHT22;20128;45.582;5.298;2023-06-10T01:46:14;20.80;89.70
33827;DHT22;20128;45.582;5.298;2023-06-10T01:48:42;20.70;89.80
33827;DHT22;20128;45.582;5.298;2023-06-10T01:51:07;20.60;89.80
33827;DHT22;20128;45.582;5.298;2023-06-10T01:53:33;20.60;90.00
33827;DHT22;20128;45.582;5.298;2023-06-10T01:55:59;20.50;90.10
33827;DHT22;20128;45.582;5.298;2023-06-10T01:58:25;20.50;90.10
33827;DHT22;20128;45.582;5.298;2023-06-10T02:00:51;20.50;90.10
33827;DHT22;20128;45.582;5.298;2023-06-10T02:03:16;20.60;90.00
33827;DHT22;20128;45.582;5.298;2023-06-10T02:05:42;20.70;90.00
33827;DHT22;20128;45.582;5.298;2023-06-10T02:08:08;20.70;90.00
33827;DHT22;20128;45.582;5.298;2023-06-10T02:10:34;20.60;90.10
33827;DHT22;20128;45.582;5.298;2023-06-10T02:13:00;20.70;90.10
33827;DHT22;20128;45.582;5.298;2023-06-10T02:15:25;20.70;90.00
33827;DHT22;20128;45.582;5.298;2023-06-10T02:17:52;20.60;90.00
33827;DHT22;20128;45.582;5.298;2023-06-10T02:20:18;20.70;90.00
33827;DHT22;20128;45.582;5.298;2023-06-10T02:22:43;20.70;89.70
33827;DHT22;20128;45.582;5.298;2023-06-10T02:25:09;20.70;89.90
33827;DHT22;20128;45.582;5.298;2023-06-10T02:27:35;20.80;89.90
33827;DHT22;20128;45.582;5.298;2023-06-10T02:30:01;20.80;89.80
33827;DHT22;20128;45.582;5.298;2023-06-10T02:32:27;20.70;89.60
33827;DHT22;20128;45.582;5.298;2023-06-10T02:34:53;20.80;89.90
33827;DHT22;20128;45.582;5.298;2023-06-10T02:37:19;20.80;90.00
33827;DHT22;20128;45.582;5.298;2023-06-10T02:39:45;20.80;89.60
33827;DHT22;20128;45.582;5.298;2023-06-10T02:42:11;20.70;89.60
33827;DHT22;20128;45.582;5.298;2023-06-10T02:44:37;20.70;90.00
33827;DHT22;20128;45.582;5.298;2023-06-10T02:47:05;20.70;90.00
33827;DHT22;20128;45.582;5.298;2023-06-10T02:49:31;20.70;90.10
33827;DHT22;20128;45.582;5.298;2023-06-10T02:51:56;20.70;90.20
33827;DHT22;20128;45.582;5.298;2023-06-10T02:54:25;20.80;90.10
33827;DHT22;20128;45.582;5.298;2023-06-10T02:56:52;20.70;90.20
33827;DHT22;20128;45.582;5.298;2023-06-10T02:59:18;20.80;90.20
33827;DHT22;20128;45.582;5.298;2023-06-10T03:01:43;20.80;90.20
33827;DHT22;20128;45.582;5.298;2023-06-10T03:04:09;20.80;90.20
33827;DHT22;20128;45.582;5.298;2023-06-10T03:06:38;20.80;90.20
33827;DHT22;20128;45.582;5.298;2023-06-10T03:09:04;20.90;90.10
33827;DHT22;20128;45.582;5.298;2023-06-10T03:11:30;20.90;90.10
33827;DHT22;20128;45.582;5.298;2023-06-10T03:13:57;21.00;90.10
33827;DHT22;20128;45.582;5.298;2023-06-10T03:16:22;20.90;89.60
33827;DHT22;20128;45.582;5.298;2023-06-10T03:18:52;20.90;89.60
33827;DHT22;20128;45.582;5.298;2023-06-10T03:21:17;20.90;89.60
33827;DHT22;20128;45.582;5.298;2023-06-10T03:23:43;20.80;89.80
33827;DHT22;20128;45.582;5.298;2023-06-10T03:26:09;20.70;90.00
33827;DHT22;20128;45.582;5.298;2023-06-10T03:28:35;20.70;90.00
33827;DHT22;20128;45.582;5.298;2023-06-10T03:31:01;20.60;90.00
33827;DHT22;20128;45.582;5.298;2023-06-10T03:33:27;20.50;90.10
33827;DHT22;20128;45.582;5.298;2023-06-10T03:35:53;20.40;90.20
33827;DHT22;20128;45.582;5.298;2023-06-10T03:38:18;20.20;90.30
33827;DHT22;20128;45.582;5.298;2023-06-10T03:40:44;20.30;90.20
33827;DHT22;20128;45.582;5.298;2023-06-10T03:43:10;20.30;90.10
33827;DHT22;20128;45.582;5.298;2023-06-10T03:45:36;20.30;90.20
33827;DHT22;20128;45.582;5.298;2023-06-10T03:48:03;20.40;90.40
33827;DHT22;20128;45.582;5.298;2023-06-10T03:50:29;20.40;90.30
33827;DHT22;20128;45.582;5.298;2023-06-10T03:52:55;20.40;90.30
33827;DHT22;20128;45.582;5.298;2023-06-10T03:55:21;20.50;90.40
33827;DHT22;20128;45.582;5.298;2023-06-10T03:57:47;20.60;90.20
33827;DHT22;20128;45.582;5.298;2023-06-10T04:00:15;20.60;90.20
33827;DHT22;20128;45.582;5.298;2023-06-10T04:02:41;20.60;90.30
33827;DHT22;20128;45.582;5.298;2023-06-10T04:05:15;20.60;90.30
33827;DHT22;20128;45.582;5.298;2023-06-10T04:07:42;20.60;90.10
33827;DHT22;20128;45.582;5.298;2023-06-10T04:10:08;20.60;90.20
33827;DHT22;20128;45.582;5.298;2023-06-10T04:12:35;20.60;90.30
33827;DHT22;20128;45.582;5.298;2023-06-10T04:15:01;20.60;90.10
33827;DHT22;20128;45.582;5.298;2023-06-10T04:17:27;20.60;90.00
33827;DHT22;20128;45.582;5.298;2023-06-10T04:19:53;20.50;90.00
33827;DHT22;20128;45.582;5.298;2023-06-10T04:22:20;20.50;90.00
33827;DHT22;20128;45.582;5.298;2023-06-10T04:24:45;20.50;90.00
33827;DHT22;20128;45.582;5.298;2023-06-10T04:27:11;20.40;90.00
33827;DHT22;20128;45.582;5.298;2023-06-10T04:29:37;20.30;90.10
33827;DHT22;20128;45.582;5.298;2023-06-10T04:32:03;20.30;90.20
33827;DHT22;20128;45.582;5.298;2023-06-10T04:34:33;20.30;90.40
33827;DHT22;20128;45.582;5.298;2023-06-10T04:36:58;20.40;90.30
33827;DHT22;20128;45.582;5.298;2023-06-10T04:39:24;20.40;90.20
33827;DHT22;20128;45.582;5.298;2023-06-10T04:41:49;20.50;90.10
33827;DHT22;20128;45.582;5.298;2023-06-10T04:44:15;20.50;90.20
33827;DHT22;20128;45.582;5.298;2023-06-10T04:46:41;20.60;90.30
33827;DHT22;20128;45.582;5.298;2023-06-10T04:49:06;20.70;90.40
33827;DHT22;20128;45.582;5.298;2023-06-10T04:51:32;20.70;90.40
33827;DHT22;20128;45.582;5.298;2023-06-10T04:53:58;20.80;90.40
33827;DHT22;20128;45.582;5.298;2023-06-10T04:56:24;20.70;90.40
33827;DHT22;20128;45.582;5.298;2023-06-10T04:58:50;20.80;90.40
33827;DHT22;20128;45.582;5.298;2023-06-10T05:01:16;20.80;90.40
33827;DHT22;20128;45.582;5.298;2023-06-10T05:03:41;20.80;90.40
33827;DHT22;20128;45.582;5.298;2023-06-10T05:06:07;20.80;90.40
33827;DHT22;20128;45.582;5.298;2023-06-10T05:08:33;20.80;90.30
33827;DHT22;20128;45.582;5.298;2023-06-10T05:10:59;20.90;90.20
33827;DHT22;20128;45.582;5.298;2023-06-10T05:13:24;20.90;90.10
33827;DHT22;20128;45.582;5.298;2023-06-10T05:15:50;20.90;90.00
33827;DHT22;20128;45.582;5.298;2023-06-10T05:18:16;20.80;89.80
33827;DHT22;20128;45.582;5.298;2023-06-10T05:20:41;20.70;89.50
33827;DHT22;20128;45.582;5.298;2023-06-10T05:23:07;20.70;89.70
33827;DHT22;20128;45.582;5.298;2023-06-10T05:25:33;20.70;90.20
33827;DHT22;20128;45.582;5.298;2023-06-10T05:27:59;20.70;90.10
33827;DHT22;20128;45.582;5.298;2023-06-10T05:30:24;20.70;90.10
33827;DHT22;20128;45.582;5.298;2023-06-10T05:32:51;20.70;90.10
33827;DHT22;20128;45.582;5.298;2023-06-10T05:35:18;20.80;90.10
33827;DHT22;20128;45.582;5.298;2023-06-10T05:37:44;20.80;90.10
33827;DHT22;20128;45.582;5.298;2023-06-10T05:40:10;20.80;90.00
33827;DHT22;20128;45.582;5.298;2023-06-10T05:42:36;20.80;90.00
33827;DHT22;20128;45.582;5.298;2023-06-10T05:45:02;20.70;90.20
33827;DHT22;20128;45.582;5.298;2023-06-10T05:47:28;20.80;90.20
33827;DHT22;20128;45.582;5.298;2023-06-10T05:49:54;20.70;90.10
33827;DHT22;20128;45.582;5.298;2023-06-10T05:52:20;20.70;90.10
33827;DHT22;20128;45.582;5.298;2023-06-10T05:54:45;20.70;90.10
33827;DHT22;20128;45.582;5.298;2023-06-10T05:57:11;20.70;90.00
33827;DHT22;20128;45.582;5.298;2023-06-10T05:59:37;20.70;90.00
33827;DHT22;20128;45.582;5.298;2023-06-10T06:02:03;20.60;90.10
33827;DHT22;20128;45.582;5.298;2023-06-10T06:04:28;20.60;90.30
33827;DHT22;20128;45.582;5.298;2023-06-10T06:06:54;20.60;90.40
33827;DHT22;20128;45.582;5.298;2023-06-10T06:09:20;20.60;90.40
33827;DHT22;20128;45.582;5.298;2023-06-10T06:11:45;20.70;90.50
33827;DHT22;20128;45.582;5.298;2023-06-10T06:14:11;20.70;90.60
33827;DHT22;20128;45.582;5.298;2023-06-10T06:16:38;20.60;90.70
33827;DHT22;20128;45.582;5.298;2023-06-10T06:19:04;20.60;90.90
33827;DHT22;20128;45.582;5.298;2023-06-10T06:21:29;20.60;91.10
33827;DHT22;20128;45.582;5.298;2023-06-10T06:23:55;20.70;91.10
33827;DHT22;20128;45.582;5.298;2023-06-10T06:26:21;20.70;91.20
33827;DHT22;20128;45.582;5.298;2023-06-10T06:28:46;20.70;91.20
33827;DHT22;20128;45.582;5.298;2023-06-10T06:31:12;20.80;91.20
33827;DHT22;20128;45.582;5.298;2023-06-10T06:33:38;20.80;91.20
33827;DHT22;20128;45.582;5.298;2023-06-10T06:36:03;20.90;91.20
33827;DHT22;20128;45.582;5.298;2023-06-10T06:38:29;20.90;91.10
33827;DHT22;20128;45.582;5.298;2023-06-10T06:40:55;20.90;91.10
33827;DHT22;20128;45.582;5.298;2023-06-10T06:43:20;20.90;91.10
33827;DHT22;20128;45.582;5.298;2023-06-10T06:45:46;21.00;91.00
33827;DHT22;20128;45.582;5.298;2023-06-10T06:48:12;21.10;91.00
33827;DHT22;20128;45.582;5.298;2023-06-10T06:50:38;21.10;90.60
33827;DHT22;20128;45.582;5.298;2023-06-10T06:53:04;21.10;90.40
33827;DHT22;20128;45.582;5.298;2023-06-10T06:55:30;21.20;90.30
33827;DHT22;20128;45.582;5.298;2023-06-10T06:57:55;21.20;90.40
33827;DHT22;20128;45.582;5.298;2023-06-10T07:00:21;21.30;90.20
33827;DHT22;20128;45.582;5.298;2023-06-10T07:02:48;21.30;89.70
33827;DHT22;20128;45.582;5.298;2023-06-10T07:05:14;21.40;89.40
33827;DHT22;20128;45.582;5.298;2023-06-10T07:07:40;21.50;88.90
33827;DHT22;20128;45.582;5.298;2023-06-10T07:10:06;21.60;88.70
33827;DHT22;20128;45.582;5.298;2023-06-10T07:12:31;21.70;88.10
33827;DHT22;20128;45.582;5.298;2023-06-10T07:14:57;21.80;87.40
33827;DHT22;20128;45.582;5.298;2023-06-10T07:17:23;21.90;87.50
33827;DHT22;20128;45.582;5.298;2023-06-10T07:19:48;21.90;87.00
33827;DHT22;20128;45.582;5.298;2023-06-10T07:22:14;22.00;85.90
33827;DHT22;20128;45.582;5.298;2023-06-10T07:24:40;22.00;85.60
33827;DHT22;20128;45.582;5.298;2023-06-10T07:27:06;22.10;86.20
33827;DHT22;20128;45.582;5.298;2023-06-10T07:29:32;22.10;85.00
33827;DHT22;20128;45.582;5.298;2023-06-10T07:31:58;22.20;85.00
33827;DHT22;20128;45.582;5.298;2023-06-10T07:34:24;22.20;85.30
33827;DHT22;20128;45.582;5.298;2023-06-10T07:36:49;22.20;85.70
33827;DHT22;20128;45.582;5.298;2023-06-10T07:39:15;22.30;86.20
33827;DHT22;20128;45.582;5.298;2023-06-10T07:41:41;22.30;86.10
33827;DHT22;20128;45.582;5.298;2023-06-10T07:44:06;22.30;85.20
33827;DHT22;20128;45.582;5.298;2023-06-10T07:46:32;22.20;85.00
33827;DHT22;20128;45.582;5.298;2023-06-10T07:48:58;22.20;85.40
33827;DHT22;20128;45.582;5.298;2023-06-10T07:51:23;22.30;85.50
33827;DHT22;20128;45.582;5.298;2023-06-10T07:53:49;22.30;85.80
33827;DHT22;20128;45.582;5.298;2023-06-10T07:56:16;22.40;85.30
33827;DHT22;20128;45.582;5.298;2023-06-10T07:58:42;22.40;84.80
33827;DHT22;20128;45.582;5.298;2023-06-10T08:01:07;22.50;83.50
33827;DHT22;20128;45.582;5.298;2023-06-10T08:03:34;22.50;83.90
33827;DHT22;20128;45.582;5.298;2023-06-10T08:05:59;22.50;83.10
33827;DHT22;20128;45.582;5.298;2023-06-10T08:08:25;22.40;83.20
33827;DHT22;20128;45.582;5.298;2023-06-10T08:10:50;22.40;82.90
33827;DHT22;20128;45.582;5.298;2023-06-10T08:13:16;22.40;83.20
33827;DHT22;20128;45.582;5.298;2023-06-10T08:15:42;22.50;84.20
33827;DHT22;20128;45.582;5.298;2023-06-10T08:18:08;22.60;84.70
33827;DHT22;20128;45.582;5.298;2023-06-10T08:20:33;22.60;83.80
33827;DHT22;20128;45.582;5.298;2023-06-10T08:22:59;22.70;83.80
33827;DHT22;20128;45.582;5.298;2023-06-10T08:25:25;22.70;80.50
33827;DHT22;20128;45.582;5.298;2023-06-10T08:27:51;22.80;79.60
33827;DHT22;20128;45.582;5.298;2023-06-10T08:30:17;22.90;80.10
33827;DHT22;20128;45.582;5.298;2023-06-10T08:32:43;23.00;79.30
33827;DHT22;20128;45.582;5.298;2023-06-10T08:35:09;23.10;78.70
33827;DHT22;20128;45.582;5.298;2023-06-10T08:37:34;23.30;78.60
33827;DHT22;20128;45.582;5.298;2023-06-10T08:40:00;23.50;79.00
33827;DHT22;20128;45.582;5.298;2023-06-10T08:42:48;23.60;79.00
33827;DHT22;20128;45.582;5.298;2023-06-10T08:45:18;23.70;77.50
33827;DHT22;20128;45.582;5.298;2023-06-10T08:47:50;23.90;76.60
33827;DHT22;20128;45.582;5.298;2023-06-10T08:50:17;24.10;76.80
33827;DHT22;20128;45.582;5.298;2023-06-10T08:52:44;24.30;76.70
33827;DHT22;20128;45.582;5.298;2023-06-10T08:55:15;24.40;77.10
33827;DHT22;20128;45.582;5.298;2023-06-10T08:57:45;24.60;75.60
33827;DHT22;20128;45.582;5.298;2023-06-10T09:00:13;24.70;74.30
33827;DHT22;20128;45.582;5.298;2023-06-10T09:02:39;24.90;75.00
33827;DHT22;20128;45.582;5.298;2023-06-10T09:05:05;25.00;75.20
33827;DHT22;20128;45.582;5.298;2023-06-10T09:07:31;25.10;73.30
33827;DHT22;20128;45.582;5.298;2023-06-10T09:10:01;25.10;71.80
33827;DHT22;20128;45.582;5.298;2023-06-10T09:12:29;25.10;69.60
33827;DHT22;20128;45.582;5.298;2023-06-10T09:14:55;24.90;68.80
33827;DHT22;20128;45.582;5.298;2023-06-10T09:17:21;24.80;69.80
33827;DHT22;20128;45.582;5.298;2023-06-10T09:19:47;24.70;71.30
33827;DHT22;20128;45.582;5.298;2023-06-10T09:22:14;24.60;71.80
33827;DHT22;20128;45.582;5.298;2023-06-10T09:24:40;24.50;72.40
33827;DHT22;20128;45.582;5.298;2023-06-10T09:27:08;24.40;71.40
33827;DHT22;20128;45.582;5.298;2023-06-10T09:32:12;24.30;72.60
33827;DHT22;20128;45.582;5.298;2023-06-10T09:34:39;24.30;73.00
33827;DHT22;20128;45.582;5.298;2023-06-10T09:37:05;24.40;73.60
33827;DHT22;20128;45.582;5.298;2023-06-10T09:39:31;24.50;73.80
33827;DHT22;20128;45.582;5.298;2023-06-10T09:41:56;24.70;73.50
33827;DHT22;20128;45.582;5.298;2023-06-10T09:44:23;24.90;72.90
33827;DHT22;20128;45.582;5.298;2023-06-10T09:46:50;24.90;72.30
33827;DHT22;20128;45.582;5.298;2023-06-10T09:49:17;25.20;71.50
33827;DHT22;20128;45.582;5.298;2023-06-10T09:51:53;25.30;70.60
33827;DHT22;20128;45.582;5.298;2023-06-10T09:54:19;25.30;69.90
33827;DHT22;20128;45.582;5.298;2023-06-10T09:56:50;25.40;69.80
33827;DHT22;20128;45.582;5.298;2023-06-10T09:59:27;25.40;68.40
33827;DHT22;20128;45.582;5.298;2023-06-10T10:01:56;25.40;69.30
33827;DHT22;20128;45.582;5.298;2023-06-10T10:04:25;25.40;68.40
33827;DHT22;20128;45.582;5.298;2023-06-10T10:06:52;25.40;69.00
33827;DHT22;20128;45.582;5.298;2023-06-10T10:09:18;25.30;68.80
33827;DHT22;20128;45.582;5.298;2023-06-10T10:11:44;25.30;68.90
33827;DHT22;20128;45.582;5.298;2023-06-10T10:14:10;25.20;68.50
33827;DHT22;20128;45.582;5.298;2023-06-10T10:16:37;25.10;69.30
33827;DHT22;20128;45.582;5.298;2023-06-10T10:19:12;25.00;70.30
33827;DHT22;20128;45.582;5.298;2023-06-10T10:21:44;24.90;71.00
33827;DHT22;20128;45.582;5.298;2023-06-10T10:24:16;24.90;71.40
33827;DHT22;20128;45.582;5.298;2023-06-10T10:26:43;24.80;71.60
33827;DHT22;20128;45.582;5.298;2023-06-10T10:29:24;24.70;71.20
33827;DHT22;20128;45.582;5.298;2023-06-10T10:31:56;24.70;72.30
33827;DHT22;20128;45.582;5.298;2023-06-10T10:34:27;24.70;72.60
33827;DHT22;20128;45.582;5.298;2023-06-10T10:36:55;24.60;72.90
33827;DHT22;20128;45.582;5.298;2023-06-10T10:39:22;24.70;73.10
33827;DHT22;20128;45.582;5.298;2023-06-10T10:41:48;24.70;73.80
33827;DHT22;20128;45.582;5.298;2023-06-10T10:44:14;24.60;74.80
33827;DHT22;20128;45.582;5.298;2023-06-10T10:46:46;24.70;75.30
33827;DHT22;20128;45.582;5.298;2023-06-10T10:49:14;24.70;73.50
33827;DHT22;20128;45.582;5.298;2023-06-10T10:52:00;24.60;73.30
33827;DHT22;20128;45.582;5.298;2023-06-10T10:54:31;24.60;74.20
33827;DHT22;20128;45.582;5.298;2023-06-10T11:04:47;24.90;71.50
33827;DHT22;20128;45.582;5.298;2023-06-10T11:07:13;24.90;71.50
33827;DHT22;20128;45.582;5.298;2023-06-10T11:12:24;24.90;71.00
33827;DHT22;20128;45.582;5.298;2023-06-10T11:14:56;24.90;70.00
33827;DHT22;20128;45.582;5.298;2023-06-10T11:17:21;24.90;70.00
33827;DHT22;20128;45.582;5.298;2023-06-10T11:19:47;24.90;70.60
33827;DHT22;20128;45.582;5.298;2023-06-10T11:22:17;25.00;70.20
33827;DHT22;20128;45.582;5.298;2023-06-10T11:24:48;25.10;69.40
33827;DHT22;20128;45.582;5.298;2023-06-10T11:27:21;25.20;70.30
33827;DHT22;20128;45.582;5.298;2023-06-10T11:32:34;25.30;69.30
33827;DHT22;20128;45.582;5.298;2023-06-10T11:35:05;25.30;68.70
33827;DHT22;20128;45.582;5.298;2023-06-10T11:37:32;25.40;68.30
33827;DHT22;20128;45.582;5.298;2023-06-10T11:39:58;25.40;68.60
33827;DHT22;20128;45.582;5.298;2023-06-10T11:42:24;25.40;69.30
33827;DHT22;20128;45.582;5.298;2023-06-10T11:44:51;25.50;68.60
33827;DHT22;20128;45.582;5.298;2023-06-10T11:47:17;25.70;68.80
33827;DHT22;20128;45.582;5.298;2023-06-10T11:49:44;25.80;68.30
33827;DHT22;20128;45.582;5.298;2023-06-10T11:52:10;25.80;68.30
33827;DHT22;20128;45.582;5.298;2023-06-10T11:54:36;25.90;67.60
33827;DHT22;20128;45.582;5.298;2023-06-10T11:57:02;26.00;68.00
33827;DHT22;20128;45.582;5.298;2023-06-10T11:59:33;26.10;67.70
33827;DHT22;20128;45.582;5.298;2023-06-10T12:01:59;26.30;68.00
33827;DHT22;20128;45.582;5.298;2023-06-10T12:04:25;26.40;67.40
33827;DHT22;20128;45.582;5.298;2023-06-10T12:06:55;26.50;67.30
33827;DHT22;20128;45.582;5.298;2023-06-10T12:09:21;26.70;67.30
33827;DHT22;20128;45.582;5.298;2023-06-10T12:12:06;26.80;66.30
33827;DHT22;20128;45.582;5.298;2023-06-10T12:14:55;26.90;65.10
33827;DHT22;20128;45.582;5.298;2023-06-10T12:20:05;27.00;65.60
33827;DHT22;20128;45.582;5.298;2023-06-10T12:25:05;27.30;64.70
33827;DHT22;20128;45.582;5.298;2023-06-10T12:27:32;27.50;65.00
33827;DHT22;20128;45.582;5.298;2023-06-10T12:29:59;27.60;64.30
33827;DHT22;20128;45.582;5.298;2023-06-10T12:32:46;27.70;63.00
33827;DHT22;20128;45.582;5.298;2023-06-10T12:35:15;27.90;62.80
33827;DHT22;20128;45.582;5.298;2023-06-10T12:37:42;28.00;63.50
33827;DHT22;20128;45.582;5.298;2023-06-10T12:40:09;28.20;62.30
33827;DHT22;20128;45.582;5.298;2023-06-10T12:42:38;28.30;62.00
33827;DHT22;20128;45.582;5.298;2023-06-10T12:45:05;28.40;61.70
33827;DHT22;20128;45.582;5.298;2023-06-10T12:47:34;28.60;60.20
33827;DHT22;20128;45.582;5.298;2023-06-10T12:50:01;28.60;59.90
33827;DHT22;20128;45.582;5.298;2023-06-10T12:52:27;28.60;60.00
33827;DHT22;20128;45.582;5.298;2023-06-10T12:54:53;28.70;59.90
33827;DHT22;20128;45.582;5.298;2023-06-10T12:57:20;28.70;59.10
33827;DHT22;20128;45.582;5.298;2023-06-10T12:59:46;28.70;58.60
33827;DHT22;20128;45.582;5.298;2023-06-10T13:02:18;28.80;58.20
33827;DHT22;20128;45.582;5.298;2023-06-10T13:04:44;28.80;56.60
33827;DHT22;20128;45.582;5.298;2023-06-10T13:07:10;29.00;56.90
33827;DHT22;20128;45.582;5.298;2023-06-10T13:09:36;29.00;56.60
33827;DHT22;20128;45.582;5.298;2023-06-10T13:12:02;29.00;57.20
33827;DHT22;20128;45.582;5.298;2023-06-10T13:14:28;29.00;57.50
33827;DHT22;20128;45.582;5.298;2023-06-10T13:16:54;29.00;57.20
33827;DHT22;20128;45.582;5.298;2023-06-10T13:19:20;28.80;56.10
33827;DHT22;20128;45.582;5.298;2023-06-10T13:21:47;28.70;55.50
33827;DHT22;20128;45.582;5.298;2023-06-10T13:24:13;28.70;55.50
33827;DHT22;20128;45.582;5.298;2023-06-10T13:26:39;28.80;53.80
33827;DHT22;20128;45.582;5.298;2023-06-10T13:29:04;28.80;54.20
33827;DHT22;20128;45.582;5.298;2023-06-10T13:31:30;28.90;53.40
33827;DHT22;20128;45.582;5.298;2023-06-10T13:33:57;29.00;53.70
33827;DHT22;20128;45.582;5.298;2023-06-10T13:36:23;29.20;52.40
33827;DHT22;20128;45.582;5.298;2023-06-10T13:38:49;29.30;51.00
33827;DHT22;20128;45.582;5.298;2023-06-10T13:41:15;29.40;52.50
33827;DHT22;20128;45.582;5.298;2023-06-10T13:43:41;29.50;50.40
33827;DHT22;20128;45.582;5.298;2023-06-10T13:46:06;29.50;50.20
33827;DHT22;20128;45.582;5.298;2023-06-10T13:48:32;29.70;49.90
33827;DHT22;20128;45.582;5.298;2023-06-10T13:50:57;29.70;50.70
33827;DHT22;20128;45.582;5.298;2023-06-10T13:53:24;29.80;50.70
33827;DHT22;20128;45.582;5.298;2023-06-10T13:55:50;29.80;49.60
33827;DHT22;20128;45.582;5.298;2023-06-10T13:58:16;29.70;50.30
33827;DHT22;20128;45.582;5.298;2023-06-10T14:00:41;29.70;50.00
33827;DHT22;20128;45.582;5.298;2023-06-10T14:03:07;29.70;50.90
33827;DHT22;20128;45.582;5.298;2023-06-10T14:05:33;29.80;51.90
33827;DHT22;20128;45.582;5.298;2023-06-10T14:07:59;29.80;52.60
33827;DHT22;20128;45.582;5.298;2023-06-10T14:10:27;29.80;53.90
33827;DHT22;20128;45.582;5.298;2023-06-10T14:12:52;29.70;52.90
33827;DHT22;20128;45.582;5.298;2023-06-10T14:15:19;29.70;53.10
33827;DHT22;20128;45.582;5.298;2023-06-10T14:17:44;29.70;53.20
33827;DHT22;20128;45.582;5.298;2023-06-10T14:20:10;29.80;53.00
33827;DHT22;20128;45.582;5.298;2023-06-10T14:22:36;29.90;52.10
33827;DHT22;20128;45.582;5.298;2023-06-10T14:25:02;29.90;51.60
33827;DHT22;20128;45.582;5.298;2023-06-10T14:27:28;29.70;52.10
33827;DHT22;20128;45.582;5.298;2023-06-10T14:29:53;29.70;51.20
33827;DHT22;20128;45.582;5.298;2023-06-10T14:32:19;29.50;52.20
33827;DHT22;20128;45.582;5.298;2023-06-10T14:34:45;29.50;53.60
33827;DHT22;20128;45.582;5.298;2023-06-10T14:37:12;29.60;54.00
33827;DHT22;20128;45.582;5.298;2023-06-10T14:39:38;29.70;54.50
33827;DHT22;20128;45.582;5.298;2023-06-10T14:42:04;29.80;55.40
33827;DHT22;20128;45.582;5.298;2023-06-10T14:44:30;29.80;55.40
33827;DHT22;20128;45.582;5.298;2023-06-10T14:46:56;29.70;55.80
33827;DHT22;20128;45.582;5.298;2023-06-10T14:49:22;29.60;56.10
33827;DHT22;20128;45.582;5.298;2023-06-10T14:51:47;29.60;56.30
33827;DHT22;20128;45.582;5.298;2023-06-10T14:54:15;29.60;56.60
33827;DHT22;20128;45.582;5.298;2023-06-10T14:56:41;29.60;56.00
33827;DHT22;20128;45.582;5.298;2023-06-10T14:59:06;29.60;55.90
33827;DHT22;20128;45.582;5.298;2023-06-10T15:01:32;29.60;56.50
33827;DHT22;20128;45.582;5.298;2023-06-10T15:03:58;29.70;56.70
33827;DHT22;20128;45.582;5.298;2023-06-10T15:06:23;29.70;56.60
33827;DHT22;20128;45.582;5.298;2023-06-10T15:08:49;29.70;56.60
33827;DHT22;20128;45.582;5.298;2023-06-10T15:11:15;29.70;56.20
33827;DHT22;20128;45.582;5.298;2023-06-10T15:13:41;29.80;56.50
33827;DHT22;20128;45.582;5.298;2023-06-10T15:16:07;29.90;56.00
33827;DHT22;20128;45.582;5.298;2023-06-10T15:18:33;30.00;55.70
33827;DHT22;20128;45.582;5.298;2023-06-10T15:20:58;30.10;55.00
33827;DHT22;20128;45.582;5.298;2023-06-10T15:23:24;30.20;54.70
33827;DHT22;20128;45.582;5.298;2023-06-10T15:25:50;30.20;53.90
33827;DHT22;20128;45.582;5.298;2023-06-10T15:28:16;30.20;53.50
33827;DHT22;20128;45.582;5.298;2023-06-10T15:30:41;30.10;53.70
33827;DHT22;20128;45.582;5.298;2023-06-10T15:33:07;30.00;53.60
33827;DHT22;20128;45.582;5.298;2023-06-10T15:35:33;30.00;53.90
33827;DHT22;20128;45.582;5.298;2023-06-10T15:37:59;29.90;54.40
33827;DHT22;20128;45.582;5.298;2023-06-10T15:40:25;29.70;55.10
33827;DHT22;20128;45.582;5.298;2023-06-10T15:42:51;29.60;54.80
33827;DHT22;20128;45.582;5.298;2023-06-10T15:45:17;29.60;54.50
33827;DHT22;20128;45.582;5.298;2023-06-10T15:47:43;29.70;53.60
33827;DHT22;20128;45.582;5.298;2023-06-10T15:50:09;29.80;53.60
33827;DHT22;20128;45.582;5.298;2023-06-10T15:52:35;29.70;53.00
33827;DHT22;20128;45.582;5.298;2023-06-10T15:55:01;29.60;53.50